createdAt,value
2017-09-04T00:01:11.429Z,99.90
2017-09-04T00:03:37.693Z,99.90
2017-09-04T00:06:03.960Z,99.90
2017-09-04T00:08:30.261Z,99.90
2017-09-04T00:10:56.561Z,99.90
2017-09-04T00:13:23.865Z,99.90
2017-09-04T00:15:50.160Z,99.90
2017-09-04T00:18:16.447Z,99.90
2017-09-04T00:20:42.729Z,99.90
2017-09-04T00:23:09.018Z,99.90
2017-09-04T00:25:36.319Z,99.90
2017-09-04T00:28:02.621Z,99.90
2017-09-04T00:30:28.928Z,99.90
2017-09-04T00:32:55.541Z,99.90
2017-09-04T00:35:21.871Z,99.90
2017-09-04T00:37:48.141Z,99.90
2017-09-04T00:40:15.522Z,99.90
2017-09-04T00:42:41.806Z,99.90
2017-09-04T00:45:08.125Z,99.90
2017-09-04T00:47:34.409Z,99.90
2017-09-04T00:50:00.714Z,99.90
2017-09-04T00:52:27.005Z,99.90
2017-09-04T00:54:53.298Z,99.90
2017-09-04T00:57:19.633Z,99.90
2017-09-04T00:59:45.933Z,99.90
2017-09-04T01:02:12.232Z,99.90
2017-09-04T01:04:38.529Z,99.90
2017-09-04T01:07:04.851Z,99.90
2017-09-04T01:09:31.144Z,99.90
2017-09-04T01:11:57.430Z,99.90
2017-09-04T01:14:23.793Z,99.90
2017-09-04T01:16:50.108Z,99.90
2017-09-04T01:19:16.426Z,99.90
2017-09-04T01:21:42.709Z,99.90
2017-09-04T01:24:08.986Z,99.90
2017-09-04T01:26:36.288Z,99.90
2017-09-04T01:29:02.580Z,99.90
2017-09-04T01:31:28.843Z,99.90
2017-09-04T01:33:55.133Z,99.90
2017-09-04T01:36:21.413Z,99.90
2017-09-04T01:38:47.724Z,99.90
2017-09-04T01:41:13.991Z,99.90
2017-09-04T01:43:40.289Z,99.90
2017-09-04T01:46:06.572Z,99.90
2017-09-04T01:48:32.848Z,99.90
2017-09-04T01:50:59.140Z,99.90
2017-09-04T01:53:25.408Z,99.90
2017-09-04T01:55:52.708Z,99.90
2017-09-04T01:58:18.982Z,99.90
2017-09-04T02:00:45.276Z,99.90
2017-09-04T02:03:25.698Z,99.90
2017-09-04T02:05:51.998Z,99.90
2017-09-04T02:08:18.323Z,99.90
2017-09-04T02:10:45.666Z,99.90
2017-09-04T02:13:11.997Z,99.90
2017-09-04T02:15:38.312Z,99.90
2017-09-04T02:18:04.627Z,99.90
2017-09-04T02:20:30.931Z,99.90
2017-09-04T02:22:57.242Z,99.90
2017-09-04T02:25:23.554Z,99.90
2017-09-04T02:27:50.869Z,99.90
2017-09-04T02:30:17.189Z,99.90
2017-09-04T02:32:43.481Z,99.90
2017-09-04T02:35:09.813Z,99.90
2017-09-04T02:37:36.122Z,99.90
2017-09-04T02:40:02.452Z,99.90
2017-09-04T02:42:28.758Z,99.90
2017-09-04T02:44:56.053Z,99.90
2017-09-04T02:47:22.357Z,99.90
2017-09-04T02:49:48.669Z,99.90
2017-09-04T02:52:14.969Z,99.90
2017-09-04T02:54:41.293Z,99.90
2017-09-04T02:57:07.617Z,99.90
2017-09-04T02:59:33.921Z,99.90
2017-09-04T03:02:01.173Z,99.90
2017-09-04T03:04:27.475Z,99.90
2017-09-04T03:06:54.761Z,99.90
2017-09-04T03:09:21.061Z,99.90
2017-09-04T03:11:47.422Z,99.90
2017-09-04T03:14:13.750Z,99.90
2017-09-04T03:16:40.088Z,99.90
2017-09-04T03:19:06.441Z,99.90
2017-09-04T03:21:32.746Z,99.90
2017-09-04T03:23:59.064Z,99.90
2017-09-04T03:26:25.401Z,99.90
2017-09-04T03:28:51.726Z,99.90
2017-09-04T03:31:18.061Z,99.90
2017-09-04T03:33:44.397Z,99.90
2017-09-04T03:36:10.716Z,99.90
2017-09-04T03:38:37.057Z,99.90
2017-09-04T03:41:03.432Z,99.90
2017-09-04T03:43:29.804Z,99.90
2017-09-04T03:45:56.150Z,99.90
2017-09-04T03:48:22.502Z,99.90
2017-09-04T03:50:48.866Z,99.90
2017-09-04T03:53:15.204Z,99.90
2017-09-04T03:55:41.568Z,99.90
2017-09-04T03:58:07.926Z,99.90
2017-09-04T04:00:34.248Z,99.90
2017-09-04T04:03:00.582Z,99.90
2017-09-04T04:05:26.913Z,99.90
2017-09-04T04:07:53.253Z,99.90
2017-09-04T04:10:19.585Z,99.90
2017-09-04T04:12:45.905Z,99.90
2017-09-04T04:15:12.230Z,99.90
2017-09-04T04:17:38.557Z,99.90
2017-09-04T04:20:04.881Z,99.90
2017-09-04T04:22:31.221Z,99.90
2017-09-04T04:24:57.523Z,99.90
2017-09-04T04:27:23.865Z,99.90
2017-09-04T04:29:51.180Z,99.90
2017-09-04T04:32:17.553Z,99.90
2017-09-04T04:34:44.882Z,99.90
2017-09-04T04:37:11.218Z,99.90
2017-09-04T04:39:38.567Z,99.90
2017-09-04T04:42:04.862Z,99.90
2017-09-04T04:44:31.165Z,99.90
2017-09-04T04:46:57.468Z,99.90
2017-09-04T04:49:23.769Z,99.90
2017-09-04T04:51:50.069Z,99.90
2017-09-04T04:54:16.381Z,99.90
2017-09-04T04:56:42.685Z,99.90
2017-09-04T04:59:08.981Z,99.90
2017-09-04T05:01:35.282Z,99.90
2017-09-04T05:04:01.609Z,99.90
2017-09-04T05:06:27.934Z,99.90
2017-09-04T05:08:54.234Z,99.90
2017-09-04T05:11:20.539Z,99.90
2017-09-04T05:13:46.830Z,99.90
2017-09-04T05:16:13.130Z,99.90
2017-09-04T05:18:39.480Z,99.90
2017-09-04T05:21:05.781Z,99.90
2017-09-04T05:23:32.129Z,99.90
2017-09-04T05:25:58.444Z,99.90
2017-09-04T05:28:24.759Z,99.90
2017-09-04T05:30:51.090Z,99.90
2017-09-04T05:33:17.397Z,99.90
2017-09-04T05:35:43.701Z,99.90
2017-09-04T05:38:09.980Z,99.90
2017-09-04T05:40:36.253Z,99.90
2017-09-04T05:43:02.553Z,99.90
2017-09-04T05:45:29.502Z,99.90
2017-09-04T05:47:56.804Z,99.90
2017-09-04T05:50:23.085Z,99.90
2017-09-04T05:52:49.369Z,99.90
2017-09-04T05:55:15.669Z,99.90
2017-09-04T05:57:41.966Z,99.90
2017-09-04T06:00:08.306Z,99.90
2017-09-04T06:02:34.593Z,99.90
2017-09-04T06:05:00.888Z,99.90
2017-09-04T06:07:27.185Z,99.90
2017-09-04T06:09:53.481Z,99.90
2017-09-04T06:12:19.761Z,99.90
2017-09-04T06:14:46.040Z,99.90
2017-09-04T06:17:12.321Z,99.90
2017-09-04T06:19:38.609Z,99.90
2017-09-04T06:22:04.886Z,99.90
2017-09-04T06:24:31.289Z,99.90
2017-09-04T06:26:57.588Z,99.90
2017-09-04T06:29:23.873Z,99.90
2017-09-04T06:31:50.177Z,99.90
2017-09-04T06:34:16.457Z,99.90
2017-09-04T06:36:42.745Z,99.90
2017-09-04T06:39:09.057Z,99.90
2017-09-04T06:41:35.341Z,99.90
2017-09-04T06:44:01.645Z,99.90
2017-09-04T06:46:27.930Z,99.90
2017-09-04T06:48:54.217Z,99.90
2017-09-04T06:51:20.527Z,99.90
2017-09-04T06:53:46.829Z,99.90
2017-09-04T06:56:13.111Z,99.90
2017-09-04T06:58:39.422Z,99.90
2017-09-04T07:01:05.721Z,99.90
2017-09-04T07:03:32.017Z,99.90
2017-09-04T07:05:58.308Z,99.90
2017-09-04T07:08:24.598Z,99.90
2017-09-04T07:10:51.934Z,99.90
2017-09-04T07:13:18.241Z,99.90
2017-09-04T07:15:44.530Z,99.90
2017-09-04T07:18:10.800Z,99.90
2017-09-04T07:20:37.069Z,99.90
2017-09-04T07:23:03.349Z,99.90
2017-09-04T07:25:29.633Z,99.90
2017-09-04T07:27:55.928Z,99.90
2017-09-04T07:30:22.220Z,99.90
2017-09-04T07:32:48.490Z,99.90
2017-09-04T07:35:14.784Z,99.90
2017-09-04T07:37:41.054Z,99.90
2017-09-04T07:40:07.349Z,99.90
2017-09-04T07:42:33.641Z,99.90
2017-09-04T07:45:00.929Z,99.90
2017-09-04T07:47:27.201Z,99.90
2017-09-04T07:49:53.504Z,99.90
2017-09-04T07:52:19.785Z,99.90
2017-09-04T07:54:46.109Z,99.90
2017-09-04T07:57:12.417Z,99.90
2017-09-04T07:59:38.700Z,99.90
2017-09-04T08:02:04.977Z,99.90
2017-09-04T08:04:32.275Z,99.90
2017-09-04T08:06:59.605Z,99.90
2017-09-04T08:09:25.885Z,99.90
2017-09-04T08:11:52.165Z,99.90
2017-09-04T08:14:18.454Z,99.90
2017-09-04T08:16:44.730Z,99.90
2017-09-04T08:19:12.021Z,99.90
2017-09-04T08:21:38.311Z,99.90
2017-09-04T08:24:04.593Z,99.90
2017-09-04T08:26:30.872Z,99.90
2017-09-04T08:28:57.163Z,99.90
2017-09-04T08:31:23.457Z,99.90
2017-09-04T08:33:49.754Z,99.90
2017-09-04T08:36:16.042Z,99.90
2017-09-04T08:38:42.330Z,99.90
2017-09-04T08:41:08.605Z,99.90
2017-09-04T08:43:34.892Z,99.90
2017-09-04T08:46:01.177Z,99.90
2017-09-04T08:48:28.847Z,99.90
2017-09-04T08:50:55.173Z,99.90
2017-09-04T08:53:21.508Z,99.90
2017-09-04T08:55:47.805Z,99.90
2017-09-04T08:58:14.109Z,99.90
2017-09-04T09:00:40.451Z,99.90
2017-09-04T09:03:07.753Z,99.90
2017-09-04T09:05:34.029Z,99.90
2017-09-04T09:08:00.314Z,99.90
2017-09-04T09:10:26.602Z,99.90
2017-09-04T09:12:52.881Z,99.90
2017-09-04T09:15:20.205Z,99.90
2017-09-04T09:17:46.482Z,99.90
2017-09-04T09:20:12.781Z,99.60
2017-09-04T09:22:39.101Z,99.90
2017-09-04T09:25:05.405Z,99.60
2017-09-04T09:27:31.721Z,99.90
2017-09-04T09:29:58.038Z,99.80
2017-09-04T09:32:24.322Z,99.30
2017-09-04T09:34:50.601Z,99.90
2017-09-04T09:37:16.884Z,99.90
2017-09-04T09:39:43.164Z,98.60
2017-09-04T09:42:09.457Z,97.70
2017-09-04T09:44:35.750Z,97.20
2017-09-04T09:47:02.030Z,96.00
2017-09-04T09:49:28.321Z,95.90
2017-09-04T09:51:54.623Z,99.40
2017-09-04T09:54:20.920Z,99.40
2017-09-04T09:56:47.221Z,96.00
2017-09-04T09:59:13.521Z,98.20
2017-09-04T10:01:39.820Z,97.60
2017-09-04T10:04:06.122Z,98.40
2017-09-04T10:06:32.434Z,97.30
2017-09-04T10:08:58.738Z,97.20
2017-09-04T10:11:26.061Z,97.70
2017-09-04T10:13:52.374Z,95.80
2017-09-04T10:16:19.706Z,93.20
2017-09-04T10:18:46.005Z,94.50
2017-09-04T10:21:12.317Z,95.40
2017-09-04T10:23:38.617Z,93.30
2017-09-04T10:26:04.934Z,94.20
2017-09-04T10:28:31.259Z,90.30
2017-09-04T10:30:57.565Z,91.80
2017-09-04T10:33:24.863Z,92.10
2017-09-04T10:35:51.170Z,95.50
2017-09-04T10:38:17.473Z,91.10
2017-09-04T10:40:43.788Z,90.90
2017-09-04T10:43:10.097Z,91.60
2017-09-04T10:45:36.385Z,91.10
2017-09-04T10:48:02.698Z,90.00
2017-09-04T10:50:29.014Z,87.10
2017-09-04T10:52:55.321Z,86.70
2017-09-04T10:55:21.641Z,87.30
2017-09-04T10:57:47.930Z,89.50
2017-09-04T11:00:14.233Z,90.00
2017-09-04T11:02:40.521Z,90.50
2017-09-04T11:05:06.832Z,90.10
2017-09-04T11:07:33.129Z,91.90
2017-09-04T11:09:59.441Z,90.90
2017-09-04T11:12:25.721Z,89.00
2017-09-04T11:14:52.020Z,89.60
2017-09-04T11:17:18.330Z,90.80
2017-09-04T11:19:44.628Z,91.50
2017-09-04T11:22:10.937Z,89.50
2017-09-04T11:24:37.253Z,92.70
2017-09-04T11:27:03.546Z,89.00
2017-09-04T11:29:29.893Z,87.30
2017-09-04T11:31:56.233Z,89.00
2017-09-04T11:34:22.560Z,90.70
2017-09-04T11:36:48.885Z,87.90
2017-09-04T11:39:15.166Z,89.10
2017-09-04T11:41:41.457Z,90.40
2017-09-04T11:44:07.756Z,90.90
2017-09-04T11:46:35.048Z,89.30
2017-09-04T11:49:02.353Z,82.20
2017-09-04T11:51:28.654Z,83.70
2017-09-04T11:53:55.481Z,86.80
2017-09-04T11:56:21.776Z,81.20
2017-09-04T11:58:48.073Z,79.50
2017-09-04T12:01:14.369Z,77.30
2017-09-04T12:03:40.653Z,78.60
2017-09-04T12:06:06.961Z,79.10
2017-09-04T12:08:34.133Z,71.40
2017-09-04T12:11:00.456Z,73.70
2017-09-04T12:13:26.766Z,72.30
2017-09-04T12:15:53.041Z,69.30
2017-09-04T12:18:19.340Z,67.40
2017-09-04T12:20:45.636Z,77.30
2017-09-04T12:23:11.945Z,73.60
2017-09-04T12:25:38.244Z,74.50
2017-09-04T12:28:04.566Z,74.30
2017-09-04T12:30:30.845Z,69.80
2017-09-04T12:32:57.164Z,66.80
2017-09-04T12:35:23.452Z,67.30
2017-09-04T12:37:49.793Z,62.50
2017-09-04T12:40:16.073Z,61.70
2017-09-04T12:42:42.373Z,58.90
2017-09-04T12:45:08.682Z,58.50
2017-09-04T12:47:34.965Z,59.00
2017-09-04T12:50:01.270Z,53.70
2017-09-04T12:52:27.562Z,52.20
2017-09-04T12:54:53.850Z,52.40
2017-09-04T12:57:20.130Z,47.10
2017-09-04T12:59:47.424Z,47.40
2017-09-04T13:02:13.762Z,50.10
2017-09-04T13:04:40.057Z,46.60
2017-09-04T13:07:06.372Z,47.90
2017-09-04T13:09:32.701Z,45.90
2017-09-04T13:12:04.990Z,47.90
2017-09-04T13:14:37.472Z,45.80
2017-09-04T13:20:14.602Z,45.00
2017-09-04T13:22:47.030Z,44.30
2017-09-04T13:25:17.250Z,43.20
2017-09-04T13:27:47.545Z,43.50
2017-09-04T13:30:33.778Z,42.90
2017-09-04T13:33:06.098Z,44.30
2017-09-04T13:35:38.539Z,44.50
2017-09-04T13:38:24.762Z,40.80
2017-09-04T13:40:58.298Z,38.60
2017-09-04T13:43:30.686Z,38.30
2017-09-04T13:46:03.154Z,38.60
2017-09-04T13:48:35.651Z,38.10
2017-09-04T13:51:16.882Z,39.70
2017-09-04T13:53:49.159Z,40.90
2017-09-04T13:56:34.394Z,42.60
2017-09-04T13:59:20.611Z,42.50
2017-09-04T14:01:53.183Z,42.30
2017-09-04T14:04:25.630Z,43.70
2017-09-04T14:09:53.871Z,41.10
2017-09-04T14:12:35.998Z,42.50
2017-09-04T14:15:08.271Z,41.30
2017-09-04T14:17:54.854Z,41.40
2017-09-04T14:20:21.166Z,43.70
2017-09-04T14:22:47.483Z,42.60
2017-09-04T14:25:13.805Z,40.50
2017-09-04T14:27:40.130Z,40.30
2017-09-04T14:30:06.447Z,41.60
2017-09-04T14:32:32.778Z,36.70
2017-09-04T14:34:59.106Z,37.30
2017-09-04T14:37:25.438Z,39.20
2017-09-04T14:39:52.798Z,40.10
2017-09-04T14:42:20.147Z,39.30
2017-09-04T14:44:47.242Z,38.70
2017-09-04T14:47:18.374Z,41.60
2017-09-04T14:49:44.698Z,41.50
2017-09-04T14:52:11.013Z,39.30
2017-09-04T14:54:37.339Z,40.90
2017-09-04T14:57:03.675Z,41.90
2017-09-04T14:59:30.004Z,41.50
2017-09-04T15:01:56.307Z,39.30
2017-09-04T15:04:22.608Z,41.70
2017-09-04T15:06:48.929Z,41.50
2017-09-04T15:09:15.253Z,41.70
2017-09-04T15:11:41.583Z,40.30
2017-09-04T15:14:07.895Z,38.70
2017-09-04T15:16:35.210Z,39.60
2017-09-04T15:19:02.554Z,39.50
2017-09-04T15:21:28.879Z,40.00
2017-09-04T15:23:55.945Z,40.90
2017-09-04T15:26:22.263Z,40.90
2017-09-04T15:28:48.577Z,42.00
2017-09-04T15:31:14.910Z,40.00
2017-09-04T15:33:41.243Z,40.00
2017-09-04T15:36:07.583Z,39.80
2017-09-04T15:38:33.911Z,40.30
2017-09-04T15:41:00.234Z,40.10
2017-09-04T15:43:26.562Z,40.10
2017-09-04T15:45:52.879Z,39.80
2017-09-04T15:48:19.202Z,41.30
2017-09-04T15:50:45.537Z,40.00
2017-09-04T15:53:11.861Z,41.00
2017-09-04T15:55:38.184Z,40.80
2017-09-04T15:58:04.515Z,40.20
2017-09-04T16:00:30.834Z,40.60
2017-09-04T16:02:57.152Z,41.10
2017-09-04T16:08:19.770Z,40.20
2017-09-04T16:10:46.961Z,41.60
2017-09-04T16:13:17.386Z,41.50
2017-09-04T16:15:45.506Z,44.10
2017-09-04T16:18:27.564Z,43.60
2017-09-04T16:20:54.786Z,43.30
2017-09-04T16:23:23.075Z,43.30
2017-09-04T16:25:55.591Z,42.40
2017-09-04T16:28:23.826Z,42.40
2017-09-04T16:30:51.955Z,42.60
2017-09-04T16:33:20.302Z,42.50
2017-09-04T16:35:48.621Z,42.00
2017-09-04T16:38:33.626Z,43.70
2017-09-04T16:41:00.823Z,43.20
2017-09-04T16:43:44.418Z,42.10
2017-09-04T16:46:13.898Z,42.50
2017-09-04T16:48:40.226Z,44.00
2017-09-04T16:51:22.386Z,44.90
2017-09-04T16:53:57.134Z,45.90
2017-09-04T16:56:25.510Z,47.70
2017-09-04T16:58:51.834Z,54.40
2017-09-04T17:01:19.186Z,53.30
2017-09-04T17:03:45.513Z,54.70
2017-09-04T17:06:11.848Z,58.30
2017-09-04T17:08:39.042Z,58.90
2017-09-04T17:11:08.258Z,64.60
2017-09-04T17:13:34.587Z,66.40
2017-09-04T17:16:00.910Z,69.90
2017-09-04T17:18:27.238Z,74.50
2017-09-04T17:20:55.343Z,80.80
2017-09-04T17:23:22.570Z,84.60
2017-09-04T17:25:48.898Z,89.50
2017-09-04T17:28:16.243Z,92.60
2017-09-04T17:30:42.570Z,95.20
2017-09-04T17:33:09.887Z,99.90
2017-09-04T17:35:36.214Z,99.90
2017-09-04T17:38:02.538Z,99.90
2017-09-04T17:40:28.962Z,99.90
2017-09-04T17:42:56.331Z,99.90
2017-09-04T17:45:22.666Z,99.90
2017-09-04T17:47:50.026Z,99.90
2017-09-04T17:50:16.364Z,99.90
2017-09-04T17:52:42.696Z,99.90
2017-09-04T17:55:09.062Z,99.90
2017-09-04T17:57:35.402Z,99.90
2017-09-04T18:00:01.734Z,99.90
2017-09-04T18:02:29.082Z,99.90
2017-09-04T18:04:55.390Z,99.90
2017-09-04T18:07:21.727Z,99.90
2017-09-04T18:09:48.018Z,99.90
2017-09-04T18:12:14.362Z,99.90
2017-09-04T18:14:40.674Z,99.90
2017-09-04T18:17:06.986Z,99.90
2017-09-04T18:19:33.314Z,99.90
2017-09-04T18:21:59.651Z,99.90
2017-09-04T18:24:26.026Z,99.90
2017-09-04T18:26:54.286Z,99.90
2017-09-04T18:29:21.538Z,99.90
2017-09-04T18:31:48.010Z,99.90
2017-09-04T18:34:14.355Z,99.90
2017-09-04T18:36:40.670Z,99.90
2017-09-04T18:39:07.018Z,99.90
2017-09-04T18:41:37.420Z,99.90
2017-09-04T18:44:04.435Z,99.90
2017-09-04T18:46:30.766Z,99.90
2017-09-04T18:48:57.099Z,99.90
2017-09-04T18:51:23.434Z,99.90
2017-09-04T18:53:49.799Z,99.90
2017-09-04T18:56:16.181Z,99.90
2017-09-04T18:58:42.550Z,99.90
2017-09-04T19:01:08.850Z,99.90
2017-09-04T19:03:35.217Z,99.90
2017-09-04T19:06:01.526Z,99.90
2017-09-04T19:08:27.837Z,99.90
2017-09-04T19:10:54.157Z,99.90
2017-09-04T19:13:21.482Z,99.90
2017-09-04T19:15:47.811Z,99.90
2017-09-04T19:18:14.157Z,99.90
2017-09-04T19:20:40.494Z,99.90
2017-09-04T19:23:06.831Z,99.90
2017-09-04T19:25:33.166Z,99.90
2017-09-04T19:27:59.502Z,99.90
2017-09-04T19:30:25.867Z,99.90
2017-09-04T19:32:52.239Z,99.90
2017-09-04T19:35:18.578Z,99.90
2017-09-04T19:37:44.910Z,99.90
2017-09-04T19:40:11.247Z,99.90
2017-09-04T19:42:37.577Z,99.90
2017-09-04T19:45:03.987Z,99.90
2017-09-04T19:47:30.290Z,99.90
2017-09-04T19:49:56.598Z,99.90
2017-09-04T19:52:22.923Z,99.90
2017-09-04T19:54:50.281Z,99.90
2017-09-04T19:57:16.633Z,99.90
2017-09-04T19:59:43.004Z,99.90
2017-09-04T20:02:09.342Z,99.90
2017-09-04T20:04:35.663Z,99.90
2017-09-04T20:07:02.003Z,99.90
2017-09-04T20:09:28.346Z,99.90
2017-09-04T20:11:54.682Z,99.90
2017-09-04T20:14:21.022Z,99.90
2017-09-04T20:16:47.365Z,99.90
2017-09-04T20:19:13.722Z,99.90
2017-09-04T20:21:40.054Z,99.90
2017-09-04T20:24:06.386Z,99.90
2017-09-04T20:26:32.690Z,99.90
2017-09-04T20:28:59.039Z,99.90
2017-09-04T20:31:25.342Z,99.90
2017-09-04T20:33:51.658Z,99.90
2017-09-04T20:36:17.973Z,99.90
2017-09-04T20:38:44.326Z,99.90
2017-09-04T20:41:10.656Z,99.90
2017-09-04T20:43:36.978Z,99.90
2017-09-04T20:46:03.294Z,99.90
2017-09-04T20:48:29.621Z,99.90
2017-09-04T20:50:56.985Z,99.90
2017-09-04T20:53:24.385Z,99.90
2017-09-04T20:55:50.690Z,99.90
2017-09-04T20:58:17.031Z,99.90
2017-09-04T21:00:43.370Z,99.90
2017-09-04T21:03:09.703Z,99.90
2017-09-04T21:05:36.034Z,99.90
2017-09-04T21:08:02.374Z,99.90
2017-09-04T21:10:28.710Z,99.90
2017-09-04T21:12:55.050Z,99.90
2017-09-04T21:15:21.399Z,99.90
2017-09-04T21:17:48.790Z,99.90
2017-09-04T21:20:16.142Z,99.90
2017-09-04T21:22:42.482Z,99.90
2017-09-04T21:25:08.821Z,99.90
2017-09-04T21:27:35.171Z,99.90
2017-09-04T21:30:01.506Z,99.90
2017-09-04T21:32:27.838Z,99.90
2017-09-04T21:34:54.166Z,99.90
2017-09-04T21:37:20.495Z,99.90
2017-09-04T21:39:46.834Z,99.90
2017-09-04T21:42:13.166Z,99.90
2017-09-04T21:44:39.495Z,99.90
2017-09-04T21:47:05.795Z,99.90
2017-09-04T21:49:32.094Z,99.90
2017-09-04T21:51:58.394Z,99.90
2017-09-04T21:54:24.698Z,99.90
2017-09-04T21:56:51.008Z,99.90
2017-09-04T21:59:17.319Z,99.90
2017-09-04T22:01:43.657Z,99.90
2017-09-04T22:04:10.990Z,99.90
2017-09-04T22:06:37.297Z,99.90
2017-09-04T22:09:03.655Z,99.90
2017-09-04T22:11:29.979Z,99.90
2017-09-04T22:13:56.290Z,99.90
2017-09-04T22:16:22.683Z,99.90
2017-09-04T22:18:50.037Z,99.90
2017-09-04T22:21:16.358Z,99.90
2017-09-04T22:23:43.654Z,99.90
2017-09-04T22:26:09.982Z,99.90
2017-09-04T22:28:37.307Z,99.90
2017-09-04T22:31:04.643Z,99.90
2017-09-04T22:33:30.970Z,99.90
2017-09-04T22:35:57.298Z,99.90
2017-09-04T22:38:23.634Z,99.90
2017-09-04T22:40:49.970Z,99.90
2017-09-04T22:43:16.278Z,99.90
2017-09-04T22:45:43.666Z,99.90
2017-09-04T22:48:11.745Z,99.90
2017-09-04T22:50:41.678Z,99.90
2017-09-04T22:53:08.018Z,99.90
2017-09-04T22:55:34.366Z,99.90
2017-09-04T22:58:04.358Z,99.90
2017-09-04T23:00:30.691Z,99.90
2017-09-04T23:02:57.026Z,99.90
2017-09-04T23:05:23.411Z,99.90
2017-09-04T23:07:49.797Z,99.90
2017-09-04T23:10:16.134Z,99.90
2017-09-04T23:12:42.465Z,99.90
2017-09-04T23:15:09.770Z,99.90
2017-09-04T23:17:37.091Z,99.90
2017-09-04T23:20:03.415Z,99.90
2017-09-04T23:22:29.741Z,99.90
2017-09-04T23:24:56.054Z,99.90
2017-09-04T23:27:22.366Z,99.90
2017-09-04T23:29:49.702Z,99.90
2017-09-04T23:32:17.022Z,99.90
2017-09-04T23:34:43.339Z,99.90
2017-09-04T23:37:09.686Z,99.90
2017-09-04T23:39:36.134Z,99.90
2017-09-04T23:42:02.466Z,99.90
2017-09-04T23:44:28.774Z,99.90
2017-09-04T23:46:55.094Z,99.90
2017-09-04T23:49:21.423Z,99.90
2017-09-04T23:51:47.751Z,99.90
2017-09-04T23:54:14.071Z,99.90
2017-09-04T23:56:40.397Z,99.90
2017-09-04T23:59:06.726Z,99.90
